sensor_id;sensor_type;location;lat;lon;timestamp;pressure;altitude;pressure_sealevel;temperature
62932;BMP280;49037;41.898;25.004;2023-07-31T00:01:18;95925.19;;;22.48
62932;BMP280;49037;41.898;25.004;2023-07-31T00:03:43;95920.94;;;22.45
62932;BMP280;49037;41.898;25.004;2023-07-31T00:06:09;95912.53;;;22.38
62932;BMP280;49037;41.898;25.004;2023-07-31T00:08:37;95923.34;;;22.36
62932;BMP280;49037;41.898;25.004;2023-07-31T00:13:17;95922.25;;;22.25
62932;BMP280;49037;41.898;25.004;2023-07-31T00:15:42;95928.00;;;22.16
62932;BMP280;49037;41.898;25.004;2023-07-31T00:18:08;95945.25;;;22.05
62932;BMP280;49037;41.898;25.004;2023-07-31T00:20:33;95928.53;;;21.95
62932;BMP280;49037;41.898;25.004;2023-07-31T00:23:00;95935.38;;;21.96
62932;BMP280;49037;41.898;25.004;2023-07-31T00:25:25;95951.16;;;22.00
62932;BMP280;49037;41.898;25.004;2023-07-31T00:27:51;95937.41;;;21.96
62932;BMP280;49037;41.898;25.004;2023-07-31T00:30:16;95943.47;;;21.94
62932;BMP280;49037;41.898;25.004;2023-07-31T00:32:42;95955.03;;;21.95
62932;BMP280;49037;41.898;25.004;2023-07-31T00:35:07;95967.88;;;21.92
62932;BMP280;49037;41.898;25.004;2023-07-31T00:37:45;95971.38;;;21.95
62932;BMP280;49037;41.898;25.004;2023-07-31T00:40:11;95976.81;;;21.95
62932;BMP280;49037;41.898;25.004;2023-07-31T00:42:36;95973.09;;;22.04
62932;BMP280;49037;41.898;25.004;2023-07-31T00:45:17;95965.69;;;21.89
62932;BMP280;49037;41.898;25.004;2023-07-31T00:48:59;95966.19;;;22.01
62932;BMP280;49037;41.898;25.004;2023-07-31T00:51:27;95960.94;;;22.07
62932;BMP280;49037;41.898;25.004;2023-07-31T00:53:53;95964.78;;;22.00
62932;BMP280;49037;41.898;25.004;2023-07-31T00:56:54;95966.63;;;21.78
62932;BMP280;49037;41.898;25.004;2023-07-31T00:59:20;95972.88;;;21.65
62932;BMP280;49037;41.898;25.004;2023-07-31T01:01:46;95962.78;;;21.52
62932;BMP280;49037;41.898;25.004;2023-07-31T01:09:38;95967.97;;;21.62
62932;BMP280;49037;41.898;25.004;2023-07-31T01:13:35;95976.75;;;21.45
62932;BMP280;49037;41.898;25.004;2023-07-31T01:16:00;95972.50;;;21.25
62932;BMP280;49037;41.898;25.004;2023-07-31T01:18:26;95980.47;;;21.21
62932;BMP280;49037;41.898;25.004;2023-07-31T01:25:36;95970.75;;;20.70
62932;BMP280;49037;41.898;25.004;2023-07-31T01:28:06;95971.91;;;20.52
62932;BMP280;49037;41.898;25.004;2023-07-31T01:30:43;95960.97;;;20.34
62932;BMP280;49037;41.898;25.004;2023-07-31T01:33:10;95963.19;;;20.38
62932;BMP280;49037;41.898;25.004;2023-07-31T01:35:36;95969.56;;;20.44
62932;BMP280;49037;41.898;25.004;2023-07-31T01:38:03;95968.31;;;20.32
62932;BMP280;49037;41.898;25.004;2023-07-31T01:40:29;95969.31;;;20.38
62932;BMP280;49037;41.898;25.004;2023-07-31T01:42:55;95960.66;;;20.42
62932;BMP280;49037;41.898;25.004;2023-07-31T01:46:18;95959.44;;;20.60
62932;BMP280;49037;41.898;25.004;2023-07-31T01:48:43;95974.34;;;20.74
62932;BMP280;49037;41.898;25.004;2023-07-31T01:51:09;95966.63;;;20.69
62932;BMP280;49037;41.898;25.004;2023-07-31T01:53:34;95957.97;;;20.57
62932;BMP280;49037;41.898;25.004;2023-07-31T01:56:00;95975.13;;;20.77
62932;BMP280;49037;41.898;25.004;2023-07-31T01:58:25;95972.31;;;20.75
62932;BMP280;49037;41.898;25.004;2023-07-31T02:00:51;95974.44;;;20.76
62932;BMP280;49037;41.898;25.004;2023-07-31T02:03:16;95973.72;;;20.60
62932;BMP280;49037;41.898;25.004;2023-07-31T02:05:49;95955.91;;;20.42
62932;BMP280;49037;41.898;25.004;2023-07-31T02:10:26;95956.88;;;20.49
62932;BMP280;49037;41.898;25.004;2023-07-31T02:14:56;95964.97;;;20.62
62932;BMP280;49037;41.898;25.004;2023-07-31T02:17:24;95965.22;;;20.68
62932;BMP280;49037;41.898;25.004;2023-07-31T02:19:50;95965.66;;;20.62
62932;BMP280;49037;41.898;25.004;2023-07-31T02:22:15;95966.28;;;20.61
62932;BMP280;49037;41.898;25.004;2023-07-31T02:24:41;95959.06;;;20.52
62932;BMP280;49037;41.898;25.004;2023-07-31T02:27:06;95964.97;;;20.62
62932;BMP280;49037;41.898;25.004;2023-07-31T02:30:44;95964.44;;;20.65
62932;BMP280;49037;41.898;25.004;2023-07-31T02:33:11;95966.47;;;20.65
62932;BMP280;49037;41.898;25.004;2023-07-31T02:35:36;95979.31;;;20.64
62932;BMP280;49037;41.898;25.004;2023-07-31T02:38:02;95978.28;;;20.71
62932;BMP280;49037;41.898;25.004;2023-07-31T02:40:27;95995.44;;;20.76
62932;BMP280;49037;41.898;25.004;2023-07-31T02:44:07;95978.00;;;20.65
62932;BMP280;49037;41.898;25.004;2023-07-31T02:46:33;95986.41;;;20.71
62932;BMP280;49037;41.898;25.004;2023-07-31T02:51:01;95973.34;;;20.68
62932;BMP280;49037;41.898;25.004;2023-07-31T02:53:27;95975.84;;;20.77
62932;BMP280;49037;41.898;25.004;2023-07-31T02:55:52;95981.09;;;20.73
62932;BMP280;49037;41.898;25.004;2023-07-31T03:00:47;95979.84;;;20.76
62932;BMP280;49037;41.898;25.004;2023-07-31T03:03:12;95983.09;;;20.88
62932;BMP280;49037;41.898;25.004;2023-07-31T03:06:50;95983.47;;;20.81
62932;BMP280;49037;41.898;25.004;2023-07-31T03:09:39;95970.31;;;20.75
62932;BMP280;49037;41.898;25.004;2023-07-31T03:12:05;95956.72;;;20.75
62932;BMP280;49037;41.898;25.004;2023-07-31T03:14:30;95962.44;;;20.81
62932;BMP280;49037;41.898;25.004;2023-07-31T03:22:07;95949.75;;;20.86
62932;BMP280;49037;41.898;25.004;2023-07-31T03:28:55;95959.13;;;21.13
62932;BMP280;49037;41.898;25.004;2023-07-31T03:31:21;95951.03;;;21.15
62932;BMP280;49037;41.898;25.004;2023-07-31T03:33:46;95945.94;;;21.23
62932;BMP280;49037;41.898;25.004;2023-07-31T03:36:11;95940.88;;;21.16
62932;BMP280;49037;41.898;25.004;2023-07-31T03:38:37;95943.22;;;21.23
62932;BMP280;49037;41.898;25.004;2023-07-31T03:41:02;95946.19;;;21.29
62932;BMP280;49037;41.898;25.004;2023-07-31T03:47:26;95934.34;;;21.38
62932;BMP280;49037;41.898;25.004;2023-07-31T03:49:51;95946.81;;;21.43
62932;BMP280;49037;41.898;25.004;2023-07-31T03:54:47;95923.31;;;21.34
62932;BMP280;49037;41.898;25.004;2023-07-31T03:59:18;95939.22;;;21.24
62932;BMP280;49037;41.898;25.004;2023-07-31T04:03:20;95944.53;;;21.37
62932;BMP280;49037;41.898;25.004;2023-07-31T04:05:46;95934.66;;;21.29
62932;BMP280;49037;41.898;25.004;2023-07-31T04:08:11;95930.59;;;21.30
62932;BMP280;49037;41.898;25.004;2023-07-31T04:10:37;95931.56;;;21.36
62932;BMP280;49037;41.898;25.004;2023-07-31T04:13:02;95935.81;;;21.41
62932;BMP280;49037;41.898;25.004;2023-07-31T04:15:27;95957.63;;;21.58
62932;BMP280;49037;41.898;25.004;2023-07-31T04:17:53;95946.44;;;21.50
62932;BMP280;49037;41.898;25.004;2023-07-31T04:20:18;95967.81;;;21.58
62932;BMP280;49037;41.898;25.004;2023-07-31T04:22:44;95985.69;;;21.63
62932;BMP280;49037;41.898;25.004;2023-07-31T04:26:26;95991.13;;;21.63
62932;BMP280;49037;41.898;25.004;2023-07-31T04:28:52;95999.09;;;21.59
62932;BMP280;49037;41.898;25.004;2023-07-31T04:31:47;96017.31;;;21.72
62932;BMP280;49037;41.898;25.004;2023-07-31T04:34:13;96020.34;;;21.79
62932;BMP280;49037;41.898;25.004;2023-07-31T04:36:38;96018.69;;;21.88
62932;BMP280;49037;41.898;25.004;2023-07-31T04:39:04;96036.38;;;21.89
62932;BMP280;49037;41.898;25.004;2023-07-31T04:41:29;96048.56;;;21.71
62932;BMP280;49037;41.898;25.004;2023-07-31T04:43:58;96060.72;;;21.70
62932;BMP280;49037;41.898;25.004;2023-07-31T04:46:25;96046.41;;;21.36
62932;BMP280;49037;41.898;25.004;2023-07-31T04:48:51;96058.03;;;21.08
62932;BMP280;49037;41.898;25.004;2023-07-31T04:51:16;96057.75;;;21.02
62932;BMP280;49037;41.898;25.004;2023-07-31T04:53:41;96060.28;;;20.98
62932;BMP280;49037;41.898;25.004;2023-07-31T04:56:15;96036.78;;;20.74
62932;BMP280;49037;41.898;25.004;2023-07-31T04:58:41;96047.91;;;20.80
62932;BMP280;49037;41.898;25.004;2023-07-31T05:01:09;96054.19;;;20.69
62932;BMP280;49037;41.898;25.004;2023-07-31T05:03:37;96055.06;;;20.45
62932;BMP280;49037;41.898;25.004;2023-07-31T05:06:02;96045.00;;;19.92
62932;BMP280;49037;41.898;25.004;2023-07-31T05:11:24;96037.50;;;19.78
62932;BMP280;49037;41.898;25.004;2023-07-31T05:13:55;96055.56;;;19.86
62932;BMP280;49037;41.898;25.004;2023-07-31T05:16:20;96052.94;;;19.88
62932;BMP280;49037;41.898;25.004;2023-07-31T05:18:46;96043.22;;;19.97
62932;BMP280;49037;41.898;25.004;2023-07-31T05:21:11;96044.31;;;20.05
62932;BMP280;49037;41.898;25.004;2023-07-31T05:23:37;96068.41;;;20.13
62932;BMP280;49037;41.898;25.004;2023-07-31T05:28:21;96054.44;;;20.18
62932;BMP280;49037;41.898;25.004;2023-07-31T05:30:46;96055.22;;;20.21
62932;BMP280;49037;41.898;25.004;2023-07-31T05:33:12;96047.47;;;20.28
62932;BMP280;49037;41.898;25.004;2023-07-31T05:36:52;96055.47;;;20.40
62932;BMP280;49037;41.898;25.004;2023-07-31T05:43:40;96053.75;;;20.46
62932;BMP280;49037;41.898;25.004;2023-07-31T05:47:30;96043.47;;;20.29
62932;BMP280;49037;41.898;25.004;2023-07-31T05:49:56;96036.81;;;20.32
62932;BMP280;49037;41.898;25.004;2023-07-31T05:52:21;96042.03;;;20.42
62932;BMP280;49037;41.898;25.004;2023-07-31T05:54:46;96058.53;;;20.61
62932;BMP280;49037;41.898;25.004;2023-07-31T05:57:12;96042.94;;;20.61
62932;BMP280;49037;41.898;25.004;2023-07-31T06:02:05;96058.88;;;20.82
62932;BMP280;49037;41.898;25.004;2023-07-31T06:04:31;96064.75;;;20.92
62932;BMP280;49037;41.898;25.004;2023-07-31T06:06:56;96060.47;;;21.02
62932;BMP280;49037;41.898;25.004;2023-07-31T06:14:01;96058.03;;;21.08
62932;BMP280;49037;41.898;25.004;2023-07-31T06:20:29;96063.66;;;21.43
62932;BMP280;49037;41.898;25.004;2023-07-31T06:22:54;96048.81;;;21.46
62932;BMP280;49037;41.898;25.004;2023-07-31T06:25:20;96058.56;;;21.51
62932;BMP280;49037;41.898;25.004;2023-07-31T06:27:45;96060.72;;;21.70
62932;BMP280;49037;41.898;25.004;2023-07-31T06:30:11;96039.75;;;21.72
62932;BMP280;49037;41.898;25.004;2023-07-31T06:33:36;96059.84;;;22.13
62932;BMP280;49037;41.898;25.004;2023-07-31T06:36:01;96056.59;;;22.34
62932;BMP280;49037;41.898;25.004;2023-07-31T06:38:27;96052.31;;;22.46
62932;BMP280;49037;41.898;25.004;2023-07-31T06:40:53;96050.06;;;22.58
62932;BMP280;49037;41.898;25.004;2023-07-31T06:43:18;96043.19;;;22.74
62932;BMP280;49037;41.898;25.004;2023-07-31T06:45:44;96037.88;;;22.95
62932;BMP280;49037;41.898;25.004;2023-07-31T06:48:11;96044.47;;;23.08
62932;BMP280;49037;41.898;25.004;2023-07-31T06:50:36;96047.91;;;23.27
62932;BMP280;49037;41.898;25.004;2023-07-31T06:53:02;96051.25;;;23.45
62932;BMP280;49037;41.898;25.004;2023-07-31T06:55:27;96050.91;;;23.55
62932;BMP280;49037;41.898;25.004;2023-07-31T06:57:54;96060.19;;;23.67
62932;BMP280;49037;41.898;25.004;2023-07-31T07:00:21;96057.81;;;23.77
62932;BMP280;49037;41.898;25.004;2023-07-31T07:02:47;96051.63;;;23.95
62932;BMP280;49037;41.898;25.004;2023-07-31T07:05:20;96061.31;;;24.20
62932;BMP280;49037;41.898;25.004;2023-07-31T07:07:46;96063.94;;;24.39
62932;BMP280;49037;41.898;25.004;2023-07-31T07:13:11;96046.16;;;24.59
62932;BMP280;49037;41.898;25.004;2023-07-31T07:17:45;96057.63;;;24.77
62932;BMP280;49037;41.898;25.004;2023-07-31T07:20:12;96051.59;;;24.59
62932;BMP280;49037;41.898;25.004;2023-07-31T07:22:37;96056.53;;;24.64
62932;BMP280;49037;41.898;25.004;2023-07-31T07:25:04;96056.22;;;24.55
62932;BMP280;49037;41.898;25.004;2023-07-31T07:27:29;96051.59;;;24.59
62932;BMP280;49037;41.898;25.004;2023-07-31T07:29:55;96061.22;;;24.60
62932;BMP280;49037;41.898;25.004;2023-07-31T07:32:21;96063.72;;;24.75
62932;BMP280;49037;41.898;25.004;2023-07-31T07:34:47;96049.88;;;24.69
62932;BMP280;49037;41.898;25.004;2023-07-31T07:37:13;96055.56;;;24.77
62932;BMP280;49037;41.898;25.004;2023-07-31T07:39:39;96064.41;;;24.99
62932;BMP280;49037;41.898;25.004;2023-07-31T07:42:04;96058.88;;;24.97
62932;BMP280;49037;41.898;25.004;2023-07-31T07:44:30;96060.44;;;25.04
62932;BMP280;49037;41.898;25.004;2023-07-31T07:49:13;96057.66;;;24.79
62932;BMP280;49037;41.898;25.004;2023-07-31T07:51:38;96052.91;;;24.79
62932;BMP280;49037;41.898;25.004;2023-07-31T07:54:04;96062.66;;;24.86
62932;BMP280;49037;41.898;25.004;2023-07-31T07:56:29;96065.22;;;25.03
62932;BMP280;49037;41.898;25.004;2023-07-31T08:00:51;96058.69;;;24.91
62932;BMP280;49037;41.898;25.004;2023-07-31T08:03:16;96062.13;;;25.15
62932;BMP280;49037;41.898;25.004;2023-07-31T08:08:06;96063.69;;;25.72
62932;BMP280;49037;41.898;25.004;2023-07-31T08:10:31;96068.72;;;26.08
62932;BMP280;49037;41.898;25.004;2023-07-31T08:12:56;96059.50;;;26.25
62932;BMP280;49037;41.898;25.004;2023-07-31T08:16:16;96063.31;;;26.72
62932;BMP280;49037;41.898;25.004;2023-07-31T08:20:11;96052.31;;;27.04
62932;BMP280;49037;41.898;25.004;2023-07-31T08:22:37;96058.88;;;27.22
62932;BMP280;49037;41.898;25.004;2023-07-31T08:25:02;96064.41;;;27.61
62932;BMP280;49037;41.898;25.004;2023-07-31T08:27:28;96047.44;;;27.74
62932;BMP280;49037;41.898;25.004;2023-07-31T08:29:53;96060.69;;;28.28
62932;BMP280;49037;41.898;25.004;2023-07-31T08:32:19;96054.31;;;28.65
62932;BMP280;49037;41.898;25.004;2023-07-31T08:34:44;96056.34;;;28.62
62932;BMP280;49037;41.898;25.004;2023-07-31T08:37:10;96053.59;;;28.62
62932;BMP280;49037;41.898;25.004;2023-07-31T08:41:57;96059.38;;;28.31
62932;BMP280;49037;41.898;25.004;2023-07-31T08:44:23;96062.81;;;27.89
62932;BMP280;49037;41.898;25.004;2023-07-31T08:46:49;96065.41;;;27.79
62932;BMP280;49037;41.898;25.004;2023-07-31T08:49:17;96059.72;;;27.69
62932;BMP280;49037;41.898;25.004;2023-07-31T08:51:46;96049.94;;;27.99
62932;BMP280;49037;41.898;25.004;2023-07-31T08:54:12;96056.34;;;28.13
62932;BMP280;49037;41.898;25.004;2023-07-31T08:56:38;96050.50;;;28.37
62932;BMP280;49037;41.898;25.004;2023-07-31T08:59:05;96047.00;;;28.30
62932;BMP280;49037;41.898;25.004;2023-07-31T09:01:31;96048.91;;;28.22
62932;BMP280;49037;41.898;25.004;2023-07-31T09:04:04;96055.94;;;28.33
62932;BMP280;49037;41.898;25.004;2023-07-31T09:06:30;96041.66;;;27.97
62932;BMP280;49037;41.898;25.004;2023-07-31T09:11:21;96044.03;;;28.18
62932;BMP280;49037;41.898;25.004;2023-07-31T09:13:47;96046.19;;;28.24
62932;BMP280;49037;41.898;25.004;2023-07-31T09:16:13;96044.91;;;28.29
62932;BMP280;49037;41.898;25.004;2023-07-31T09:18:57;96061.50;;;28.38
62932;BMP280;49037;41.898;25.004;2023-07-31T09:21:24;96041.47;;;27.85
62932;BMP280;49037;41.898;25.004;2023-07-31T09:23:51;96050.31;;;27.80
62932;BMP280;49037;41.898;25.004;2023-07-31T09:26:34;96049.97;;;28.03
62932;BMP280;49037;41.898;25.004;2023-07-31T09:29:01;96041.84;;;27.66
62932;BMP280;49037;41.898;25.004;2023-07-31T09:31:41;96040.00;;;28.21
62932;BMP280;49037;41.898;25.004;2023-07-31T09:34:11;96034.88;;;28.02
62932;BMP280;49037;41.898;25.004;2023-07-31T09:36:44;96042.78;;;27.82
62932;BMP280;49037;41.898;25.004;2023-07-31T09:39:11;96045.78;;;27.55
62932;BMP280;49037;41.898;25.004;2023-07-31T09:41:44;96035.53;;;27.58
62932;BMP280;49037;41.898;25.004;2023-07-31T09:44:10;96035.84;;;28.20
62932;BMP280;49037;41.898;25.004;2023-07-31T09:46:38;96027.91;;;28.40
62932;BMP280;49037;41.898;25.004;2023-07-31T09:49:11;96047.09;;;28.36
62932;BMP280;49037;41.898;25.004;2023-07-31T09:51:38;96045.66;;;28.33
62932;BMP280;49037;41.898;25.004;2023-07-31T09:57:21;96020.97;;;28.37
62932;BMP280;49037;41.898;25.004;2023-07-31T09:59:48;96031.47;;;28.05
62932;BMP280;49037;41.898;25.004;2023-07-31T10:02:26;96040.59;;;28.18
62932;BMP280;49037;41.898;25.004;2023-07-31T10:04:57;96017.75;;;28.05
62932;BMP280;49037;41.898;25.004;2023-07-31T10:07:28;96013.94;;;28.26
62932;BMP280;49037;41.898;25.004;2023-07-31T10:09:57;96013.25;;;28.76
62932;BMP280;49037;41.898;25.004;2023-07-31T10:12:26;96012.19;;;29.05
62932;BMP280;49037;41.898;25.004;2023-07-31T10:15:12;96016.16;;;28.92
62932;BMP280;49037;41.898;25.004;2023-07-31T10:17:38;96035.97;;;28.79
62932;BMP280;49037;41.898;25.004;2023-07-31T10:20:04;96013.47;;;28.41
62932;BMP280;49037;41.898;25.004;2023-07-31T10:22:31;96021.06;;;28.43
62932;BMP280;49037;41.898;25.004;2023-07-31T10:24:58;96007.28;;;28.39
62932;BMP280;49037;41.898;25.004;2023-07-31T10:27:24;96014.59;;;28.75
62932;BMP280;49037;41.898;25.004;2023-07-31T10:29:52;96007.50;;;29.17
62932;BMP280;49037;41.898;25.004;2023-07-31T10:32:19;96009.00;;;29.30
62932;BMP280;49037;41.898;25.004;2023-07-31T10:34:49;96006.28;;;29.34
62932;BMP280;49037;41.898;25.004;2023-07-31T10:40:18;95988.38;;;29.31
62932;BMP280;49037;41.898;25.004;2023-07-31T10:42:56;95985.25;;;28.94
62932;BMP280;49037;41.898;25.004;2023-07-31T10:45:37;96003.66;;;28.79
62932;BMP280;49037;41.898;25.004;2023-07-31T10:48:14;95984.81;;;28.54
62932;BMP280;49037;41.898;25.004;2023-07-31T10:50:55;95998.31;;;28.93
62932;BMP280;49037;41.898;25.004;2023-07-31T10:53:29;95979.19;;;29.09
62932;BMP280;49037;41.898;25.004;2023-07-31T10:55:59;95992.00;;;29.49
62932;BMP280;49037;41.898;25.004;2023-07-31T10:58:25;95972.78;;;29.57
62932;BMP280;49037;41.898;25.004;2023-07-31T11:00:55;95980.59;;;29.88
62932;BMP280;49037;41.898;25.004;2023-07-31T11:03:25;95987.97;;;29.64
62932;BMP280;49037;41.898;25.004;2023-07-31T11:06:03;95968.81;;;29.80
62932;BMP280;49037;41.898;25.004;2023-07-31T11:08:31;95965.41;;;29.85
62932;BMP280;49037;41.898;25.004;2023-07-31T11:13:32;95961.22;;;29.76
62932;BMP280;49037;41.898;25.004;2023-07-31T11:15:58;95956.53;;;29.95
62932;BMP280;49037;41.898;25.004;2023-07-31T11:18:26;95969.78;;;30.24
62932;BMP280;49037;41.898;25.004;2023-07-31T11:20:52;95964.88;;;30.14
62932;BMP280;49037;41.898;25.004;2023-07-31T11:23:19;95954.00;;;30.46
62932;BMP280;49037;41.898;25.004;2023-07-31T11:25:44;95946.38;;;30.31
62932;BMP280;49037;41.898;25.004;2023-07-31T11:28:15;95955.28;;;30.21
62932;BMP280;49037;41.898;25.004;2023-07-31T11:30:55;95964.97;;;30.32
62932;BMP280;49037;41.898;25.004;2023-07-31T11:33:21;95954.59;;;30.23
62932;BMP280;49037;41.898;25.004;2023-07-31T11:35:48;95946.44;;;30.46
62932;BMP280;49037;41.898;25.004;2023-07-31T11:38:25;95951.19;;;30.28
62932;BMP280;49037;41.898;25.004;2023-07-31T11:40:52;95949.72;;;30.13
62932;BMP280;49037;41.898;25.004;2023-07-31T11:43:21;95950.47;;;30.30
62932;BMP280;49037;41.898;25.004;2023-07-31T11:45:53;95939.97;;;29.93
62932;BMP280;49037;41.898;25.004;2023-07-31T11:50:46;95944.19;;;30.09
62932;BMP280;49037;41.898;25.004;2023-07-31T11:53:12;95942.84;;;30.14
62932;BMP280;49037;41.898;25.004;2023-07-31T11:55:38;95940.78;;;30.11
62932;BMP280;49037;41.898;25.004;2023-07-31T11:58:04;95933.28;;;30.29
62932;BMP280;49037;41.898;25.004;2023-07-31T12:00:30;95922.28;;;30.37
62932;BMP280;49037;41.898;25.004;2023-07-31T12:02:56;95924.28;;;30.23
62932;BMP280;49037;41.898;25.004;2023-07-31T12:05:22;95915.97;;;30.05
62932;BMP280;49037;41.898;25.004;2023-07-31T12:07:54;95916.69;;;30.15
62932;BMP280;49037;41.898;25.004;2023-07-31T12:13:11;95914.00;;;30.41
62932;BMP280;49037;41.898;25.004;2023-07-31T12:15:44;95908.50;;;30.43
62932;BMP280;49037;41.898;25.004;2023-07-31T12:18:19;95905.09;;;30.54
62932;BMP280;49037;41.898;25.004;2023-07-31T12:20:57;95912.75;;;30.71
62932;BMP280;49037;41.898;25.004;2023-07-31T12:23:27;95905.84;;;30.76
62932;BMP280;49037;41.898;25.004;2023-07-31T12:26:09;95911.38;;;30.82
62932;BMP280;49037;41.898;25.004;2023-07-31T12:28:39;95912.78;;;30.85
62932;BMP280;49037;41.898;25.004;2023-07-31T12:31:05;95911.91;;;30.30
62932;BMP280;49037;41.898;25.004;2023-07-31T12:33:33;95919.13;;;29.64
62932;BMP280;49037;41.898;25.004;2023-07-31T12:36:00;95917.69;;;29.49
62932;BMP280;49037;41.898;25.004;2023-07-31T12:38:26;95938.91;;;29.39
62932;BMP280;49037;41.898;25.004;2023-07-31T12:40:52;95936.78;;;29.34
62932;BMP280;49037;41.898;25.004;2023-07-31T12:43:17;95960.53;;;28.98
62932;BMP280;49037;41.898;25.004;2023-07-31T12:45:43;95959.16;;;28.36
62932;BMP280;49037;41.898;25.004;2023-07-31T12:48:08;95962.69;;;28.46
62932;BMP280;49037;41.898;25.004;2023-07-31T12:50:34;95962.16;;;28.07
62932;BMP280;49037;41.898;25.004;2023-07-31T12:53:02;95943.34;;;27.86
62932;BMP280;49037;41.898;25.004;2023-07-31T12:55:28;95950.47;;;27.19
62932;BMP280;49037;41.898;25.004;2023-07-31T12:57:56;95947.53;;;27.46
62932;BMP280;49037;41.898;25.004;2023-07-31T13:00:22;95945.75;;;27.64
62932;BMP280;49037;41.898;25.004;2023-07-31T13:02:47;95933.47;;;27.69
62932;BMP280;49037;41.898;25.004;2023-07-31T13:05:13;95946.34;;;28.04
62932;BMP280;49037;41.898;25.004;2023-07-31T13:07:41;95935.53;;;28.17
62932;BMP280;49037;41.898;25.004;2023-07-31T13:10:07;95932.84;;;28.21
62932;BMP280;49037;41.898;25.004;2023-07-31T13:12:33;95920.81;;;28.48
62932;BMP280;49037;41.898;25.004;2023-07-31T13:14:58;95917.38;;;28.49
62932;BMP280;49037;41.898;25.004;2023-07-31T13:17:24;95925.06;;;28.59
62932;BMP280;49037;41.898;25.004;2023-07-31T13:19:49;95936.06;;;28.59
62932;BMP280;49037;41.898;25.004;2023-07-31T13:22:15;95956.75;;;28.66
62932;BMP280;49037;41.898;25.004;2023-07-31T13:24:41;95949.81;;;28.59
62932;BMP280;49037;41.898;25.004;2023-07-31T13:27:06;95952.56;;;28.61
62932;BMP280;49037;41.898;25.004;2023-07-31T13:29:32;95948.69;;;28.25
62932;BMP280;49037;41.898;25.004;2023-07-31T13:31:58;95945.16;;;28.16
62932;BMP280;49037;41.898;25.004;2023-07-31T13:34:23;95938.81;;;28.06
62932;BMP280;49037;41.898;25.004;2023-07-31T13:36:49;95914.00;;;28.00
62932;BMP280;49037;41.898;25.004;2023-07-31T13:39:14;95931.22;;;28.05
62932;BMP280;49037;41.898;25.004;2023-07-31T13:41:40;95934.78;;;28.11
62932;BMP280;49037;41.898;25.004;2023-07-31T13:44:05;95940.50;;;28.29
62932;BMP280;49037;41.898;25.004;2023-07-31T13:46:31;95935.78;;;28.35
62932;BMP280;49037;41.898;25.004;2023-07-31T13:48:58;95935.09;;;28.37
62932;BMP280;49037;41.898;25.004;2023-07-31T13:51:34;95933.06;;;28.37
62932;BMP280;49037;41.898;25.004;2023-07-31T13:56:25;95938.72;;;28.51
62932;BMP280;49037;41.898;25.004;2023-07-31T13:58:51;95927.03;;;28.52
62932;BMP280;49037;41.898;25.004;2023-07-31T14:01:16;95928.66;;;28.73
62932;BMP280;49037;41.898;25.004;2023-07-31T14:03:42;95914.28;;;28.76
62932;BMP280;49037;41.898;25.004;2023-07-31T14:06:09;95917.91;;;28.97
62932;BMP280;49037;41.898;25.004;2023-07-31T14:09:19;95925.03;;;29.23
62932;BMP280;49037;41.898;25.004;2023-07-31T14:11:47;95920.91;;;29.22
62932;BMP280;49037;41.898;25.004;2023-07-31T14:14:12;95921.50;;;29.13
62932;BMP280;49037;41.898;25.004;2023-07-31T14:16:39;95925.78;;;29.34
62932;BMP280;49037;41.898;25.004;2023-07-31T14:19:04;95916.97;;;29.51
62932;BMP280;49037;41.898;25.004;2023-07-31T14:21:30;95916.97;;;29.51
62932;BMP280;49037;41.898;25.004;2023-07-31T14:23:55;95903.94;;;29.55
62932;BMP280;49037;41.898;25.004;2023-07-31T14:26:21;95908.16;;;29.66
62932;BMP280;49037;41.898;25.004;2023-07-31T14:28:46;95917.03;;;29.55
62932;BMP280;49037;41.898;25.004;2023-07-31T14:31:12;95911.31;;;29.29
62932;BMP280;49037;41.898;25.004;2023-07-31T14:33:37;95905.00;;;29.15
62932;BMP280;49037;41.898;25.004;2023-07-31T14:36:05;95914.16;;;29.41
62932;BMP280;49037;41.898;25.004;2023-07-31T14:38:31;95905.81;;;29.27
62932;BMP280;49037;41.898;25.004;2023-07-31T14:40:58;95901.41;;;28.97
62932;BMP280;49037;41.898;25.004;2023-07-31T14:43:24;95907.53;;;28.91
62932;BMP280;49037;41.898;25.004;2023-07-31T14:45:49;95907.53;;;28.91
62932;BMP280;49037;41.898;25.004;2023-07-31T14:48:15;95897.19;;;28.86
62932;BMP280;49037;41.898;25.004;2023-07-31T14:50:40;95898.59;;;28.91
62932;BMP280;49037;41.898;25.004;2023-07-31T14:53:06;95910.06;;;28.70
62932;BMP280;49037;41.898;25.004;2023-07-31T14:55:31;95907.41;;;28.79
62932;BMP280;49037;41.898;25.004;2023-07-31T14:57:57;95908.13;;;28.84
62932;BMP280;49037;41.898;25.004;2023-07-31T15:00:22;95908.19;;;28.86
62932;BMP280;49037;41.898;25.004;2023-07-31T15:02:49;95898.28;;;28.63
62932;BMP280;49037;41.898;25.004;2023-07-31T15:05:15;95895.53;;;28.61
62932;BMP280;49037;41.898;25.004;2023-07-31T15:07:42;95894.94;;;28.72
62932;BMP280;49037;41.898;25.004;2023-07-31T15:10:11;95888.06;;;28.68
62932;BMP280;49037;41.898;25.004;2023-07-31T15:12:47;95879.09;;;28.65
62932;BMP280;49037;41.898;25.004;2023-07-31T15:15:16;95879.75;;;28.64
62932;BMP280;49037;41.898;25.004;2023-07-31T15:17:42;95881.66;;;28.47
62932;BMP280;49037;41.898;25.004;2023-07-31T15:20:09;95877.50;;;28.46
62932;BMP280;49037;41.898;25.004;2023-07-31T15:22:34;95894.09;;;28.54
62932;BMP280;49037;41.898;25.004;2023-07-31T15:25:00;95880.88;;;28.41
62932;BMP280;49037;41.898;25.004;2023-07-31T15:27:25;95887.00;;;28.34
62932;BMP280;49037;41.898;25.004;2023-07-31T15:29:51;95889.63;;;28.26
62932;BMP280;49037;41.898;25.004;2023-07-31T15:32:20;95894.72;;;28.49
62932;BMP280;49037;41.898;25.004;2023-07-31T15:34:48;95893.47;;;28.60
62932;BMP280;49037;41.898;25.004;2023-07-31T15:37:14;95883.72;;;28.49
62932;BMP280;49037;41.898;25.004;2023-07-31T15:39:39;95901.31;;;28.26
62932;BMP280;49037;41.898;25.004;2023-07-31T15:42:05;95909.59;;;28.30
62932;BMP280;49037;41.898;25.004;2023-07-31T15:44:30;95895.31;;;28.43
62932;BMP280;49037;41.898;25.004;2023-07-31T15:46:58;95896.84;;;28.54